createdAt,value
2023-03-03T00:01:04.893Z,85.35
2023-03-03T00:03:33.335Z,85.94
2023-03-03T00:06:01.546Z,86.11
2023-03-03T00:08:29.484Z,85.62
2023-03-03T00:10:57.467Z,85.10
2023-03-03T00:13:28.596Z,85.52
2023-03-03T00:16:17.146Z,86.05
2023-03-03T00:18:47.675Z,85.84
2023-03-03T00:21:30.274Z,86.39
2023-03-03T00:24:22.263Z,86.06
2023-03-03T00:26:52.779Z,85.79
2023-03-03T00:29:31.581Z,85.85
2023-03-03T00:32:24.139Z,85.46
2023-03-03T00:34:54.534Z,85.73
2023-03-03T00:37:33.309Z,85.66
2023-03-03T00:40:21.870Z,85.42
2023-03-03T00:42:53.489Z,85.66
2023-03-03T00:45:30.654Z,85.76
2023-03-03T00:48:09.186Z,85.85
2023-03-03T00:50:41.054Z,86.13
2023-03-03T00:53:17.104Z,85.98
2023-03-03T00:55:46.614Z,86.21
2023-03-03T00:58:14.878Z,86.49
2023-03-03T01:00:44.387Z,85.97
2023-03-03T01:03:16.073Z,86.00
2023-03-03T01:05:44.143Z,85.46
2023-03-03T01:08:12.406Z,85.46
2023-03-03T01:10:46.259Z,85.11
2023-03-03T01:13:14.520Z,85.50
2023-03-03T01:15:43.424Z,85.73
2023-03-03T01:18:14.110Z,86.16
2023-03-03T01:20:42.487Z,86.67
2023-03-03T01:23:10.964Z,86.11
2023-03-03T01:25:38.978Z,86.47
2023-03-03T01:28:07.057Z,86.54
2023-03-03T01:30:35.148Z,86.78
2023-03-03T01:33:03.566Z,86.97
2023-03-03T01:35:33.107Z,86.76
2023-03-03T01:38:00.864Z,87.21
2023-03-03T01:40:31.961Z,88.00
2023-03-03T01:43:01.535Z,88.36
2023-03-03T01:45:32.275Z,88.57
2023-03-03T01:48:05.631Z,88.51
2023-03-03T01:50:46.724Z,88.68
2023-03-03T01:53:20.914Z,88.85
2023-03-03T01:55:53.002Z,89.06
2023-03-03T01:58:27.201Z,88.91
2023-03-03T02:01:03.548Z,89.15
2023-03-03T02:03:32.253Z,89.36
2023-03-03T02:06:08.709Z,89.46
2023-03-03T02:08:45.177Z,89.31
2023-03-03T02:11:15.719Z,88.94
2023-03-03T02:13:43.635Z,88.96
2023-03-03T02:16:11.712Z,88.99
2023-03-03T02:18:39.952Z,89.39
2023-03-03T02:21:15.538Z,88.90
2023-03-03T02:23:54.034Z,89.06
2023-03-03T02:26:27.225Z,88.86
2023-03-03T02:28:55.239Z,89.37
2023-03-03T02:31:26.573Z,89.18
2023-03-03T02:33:56.461Z,88.99
2023-03-03T02:36:28.423Z,89.12
2023-03-03T02:39:05.719Z,89.05
2023-03-03T02:41:42.266Z,88.97
2023-03-03T02:44:14.328Z,89.21
2023-03-03T02:46:46.375Z,89.47
2023-03-03T02:49:17.649Z,89.86
2023-03-03T02:51:45.942Z,89.85
2023-03-03T02:54:15.996Z,90.35
2023-03-03T02:56:46.259Z,90.19
2023-03-03T02:59:15.258Z,90.09
2023-03-03T03:01:44.169Z,90.32
2023-03-03T03:04:15.034Z,90.72
2023-03-03T03:06:43.676Z,90.55
2023-03-03T03:09:17.787Z,90.44
2023-03-03T03:11:47.219Z,90.45
2023-03-03T03:14:15.933Z,90.17
2023-03-03T03:16:43.961Z,90.25
2023-03-03T03:19:12.446Z,90.38
2023-03-03T03:21:40.397Z,90.11
2023-03-03T03:24:08.876Z,90.79
2023-03-03T03:26:36.847Z,91.09
2023-03-03T03:29:06.281Z,91.46
2023-03-03T03:31:34.197Z,91.71
2023-03-03T03:34:02.088Z,91.95
2023-03-03T03:36:30.039Z,91.92
2023-03-03T03:38:57.950Z,92.15
2023-03-03T03:41:25.859Z,92.45
2023-03-03T03:43:53.790Z,92.72
2023-03-03T03:46:23.315Z,92.20
2023-03-03T03:48:51.301Z,92.53
2023-03-03T03:51:19.216Z,92.85
2023-03-03T03:53:47.190Z,92.59
2023-03-03T03:56:15.256Z,92.86
2023-03-03T03:58:43.535Z,92.91
2023-03-03T04:01:11.436Z,92.58
2023-03-03T04:03:40.840Z,92.66
2023-03-03T04:06:08.682Z,92.78
2023-03-03T04:08:36.664Z,92.81
2023-03-03T04:11:04.734Z,92.48
2023-03-03T04:13:35.128Z,92.97
2023-03-03T04:16:03.341Z,93.01
2023-03-03T04:18:31.416Z,92.56
2023-03-03T04:21:00.783Z,92.41
2023-03-03T04:23:28.818Z,92.17
2023-03-03T04:25:56.787Z,92.29
2023-03-03T04:28:25.380Z,92.01
2023-03-03T04:30:53.426Z,92.25
2023-03-03T04:33:21.461Z,92.11
2023-03-03T04:35:49.575Z,92.37
2023-03-03T04:38:19.047Z,92.69
2023-03-03T04:40:46.844Z,92.89
2023-03-03T04:43:15.990Z,93.18
2023-03-03T04:45:44.302Z,93.38
2023-03-03T04:48:12.246Z,93.41
2023-03-03T04:50:40.164Z,93.82
2023-03-03T04:53:08.075Z,93.19
2023-03-03T04:55:38.888Z,93.65
2023-03-03T04:58:07.505Z,93.63
2023-03-03T05:00:35.426Z,93.47
2023-03-03T05:03:03.668Z,93.31
2023-03-03T05:05:31.604Z,94.02
2023-03-03T05:07:59.651Z,93.87
2023-03-03T05:10:27.769Z,93.96
2023-03-03T05:12:57.034Z,94.07
2023-03-03T05:15:24.999Z,94.00
2023-03-03T05:17:53.568Z,94.14
2023-03-03T05:20:21.519Z,94.09
2023-03-03T05:22:49.505Z,94.16
2023-03-03T05:25:17.901Z,93.91
2023-03-03T05:27:46.159Z,93.89
2023-03-03T05:30:16.567Z,93.84
2023-03-03T05:32:44.492Z,93.96
2023-03-03T05:35:12.508Z,94.06
2023-03-03T05:37:44.882Z,94.22
2023-03-03T05:40:14.970Z,93.86
2023-03-03T05:42:43.002Z,93.46
2023-03-03T05:45:12.214Z,93.01
2023-03-03T05:47:41.544Z,92.72
2023-03-03T05:50:12.227Z,92.33
2023-03-03T05:52:40.342Z,92.52
2023-03-03T05:55:09.916Z,92.64
2023-03-03T05:57:38.003Z,92.50
2023-03-03T06:00:08.395Z,92.54
2023-03-03T06:02:36.548Z,92.81
2023-03-03T06:05:07.372Z,93.17
2023-03-03T06:07:35.512Z,93.11
2023-03-03T06:10:03.664Z,93.05
2023-03-03T06:12:31.791Z,93.19
2023-03-03T06:15:07.794Z,93.17
2023-03-03T06:17:44.048Z,93.24
2023-03-03T06:20:13.770Z,93.24
2023-03-03T06:22:41.953Z,93.19
2023-03-03T06:25:10.758Z,92.77
2023-03-03T06:27:38.766Z,92.63
2023-03-03T06:30:08.602Z,92.47
2023-03-03T06:32:36.639Z,92.57
2023-03-03T06:35:04.961Z,92.56
2023-03-03T06:37:34.248Z,92.68
2023-03-03T06:40:02.195Z,93.19
2023-03-03T06:42:30.167Z,93.05
2023-03-03T06:44:58.418Z,92.71
2023-03-03T06:47:26.542Z,92.56
2023-03-03T06:49:54.506Z,92.38
2023-03-03T06:52:28.292Z,92.14
2023-03-03T06:55:02.030Z,91.75
2023-03-03T06:57:32.889Z,92.08
2023-03-03T07:00:16.478Z,91.68
2023-03-03T07:02:44.549Z,91.45
2023-03-03T07:05:21.027Z,91.21
2023-03-03T07:07:49.142Z,91.56
2023-03-03T07:10:25.785Z,91.98
2023-03-03T07:12:54.939Z,91.72
2023-03-03T07:15:26.282Z,91.88
2023-03-03T07:17:59.757Z,92.02
2023-03-03T07:20:36.564Z,92.20
2023-03-03T07:23:22.650Z,92.30
2023-03-03T07:25:53.565Z,92.85
2023-03-03T07:28:25.935Z,92.92
2023-03-03T07:30:56.639Z,93.29
2023-03-03T07:33:29.276Z,93.40
2023-03-03T07:36:00.254Z,93.33
2023-03-03T07:38:37.082Z,93.39
2023-03-03T07:41:15.655Z,93.20
2023-03-03T07:43:54.459Z,93.07
2023-03-03T07:46:31.994Z,93.06
2023-03-03T07:49:01.165Z,92.35
2023-03-03T07:51:31.762Z,92.10
2023-03-03T07:54:19.197Z,91.70
2023-03-03T07:56:49.079Z,91.80
2023-03-03T07:59:23.997Z,92.07
2023-03-03T08:01:55.291Z,92.06
2023-03-03T08:04:30.853Z,92.03
2023-03-03T08:06:59.818Z,91.79
2023-03-03T08:09:49.159Z,91.29
2023-03-03T08:12:49.391Z,91.13
2023-03-03T08:15:25.932Z,90.45
2023-03-03T08:17:57.029Z,89.83
2023-03-03T08:20:58.392Z,89.42
2023-03-03T08:23:26.545Z,89.00
2023-03-03T08:25:55.010Z,89.70
2023-03-03T08:28:23.388Z,89.31
2023-03-03T08:31:02.715Z,89.39
2023-03-03T08:33:37.346Z,89.33
2023-03-03T08:36:06.199Z,89.29
2023-03-03T08:38:34.622Z,88.78
2023-03-03T08:41:02.722Z,88.65
2023-03-03T08:43:30.852Z,88.94
2023-03-03T08:46:02.787Z,89.17
2023-03-03T08:48:31.091Z,88.71
2023-03-03T08:50:59.638Z,88.87
2023-03-03T08:53:28.953Z,88.60
2023-03-03T08:55:57.229Z,87.85
2023-03-03T08:58:34.700Z,87.34
2023-03-03T09:01:06.031Z,87.65
2023-03-03T09:03:34.015Z,88.00
2023-03-03T09:06:02.066Z,87.99
2023-03-03T09:08:30.105Z,87.83
2023-03-03T09:10:58.072Z,87.21
2023-03-03T09:13:25.993Z,87.73
2023-03-03T09:15:53.950Z,87.33
2023-03-03T09:18:31.093Z,87.39
2023-03-03T09:20:59.036Z,86.91
2023-03-03T09:23:35.616Z,87.46
2023-03-03T09:26:26.994Z,87.36
2023-03-03T09:28:57.060Z,87.65
2023-03-03T09:31:37.670Z,87.00
2023-03-03T09:34:20.600Z,86.88
2023-03-03T09:36:49.420Z,86.79
2023-03-03T09:39:20.758Z,86.82
2023-03-03T09:42:17.037Z,87.31
2023-03-03T09:45:31.614Z,86.81
2023-03-03T09:48:36.373Z,86.72
2023-03-03T09:51:26.250Z,86.84
2023-03-03T09:54:12.679Z,86.32
2023-03-03T09:56:48.057Z,86.49
2023-03-03T09:59:36.360Z,85.47
2023-03-03T10:02:44.638Z,85.07
2023-03-03T10:05:35.743Z,85.26
2023-03-03T10:08:26.915Z,85.54
2023-03-03T10:11:04.932Z,85.55
2023-03-03T10:13:53.133Z,85.43
2023-03-03T10:16:56.392Z,86.70
2023-03-03T10:19:40.238Z,86.36
2023-03-03T10:22:26.368Z,86.79
2023-03-03T10:25:18.728Z,86.01
2023-03-03T10:28:19.289Z,86.04
2023-03-03T10:31:07.901Z,85.55
2023-03-03T10:33:54.466Z,85.73
2023-03-03T10:36:41.238Z,85.95
2023-03-03T10:39:52.802Z,85.79
2023-03-03T10:42:47.527Z,86.27
2023-03-03T10:46:14.504Z,85.63
2023-03-03T10:49:21.029Z,85.49
2023-03-03T10:52:26.984Z,85.93
2023-03-03T10:55:39.520Z,86.52
2023-03-03T10:58:28.814Z,86.12
2023-03-03T11:01:09.999Z,86.69
2023-03-03T11:04:11.412Z,86.63
2023-03-03T11:06:53.511Z,85.73
2023-03-03T11:09:54.959Z,86.43
2023-03-03T11:12:43.711Z,85.82
2023-03-03T11:15:54.842Z,85.18
2023-03-03T11:18:55.151Z,85.03
2023-03-03T11:21:54.602Z,85.10
2023-03-03T11:28:13.673Z,86.01
2023-03-03T11:31:05.450Z,85.80
2023-03-03T11:33:44.893Z,84.81
2023-03-03T11:36:20.646Z,84.06
2023-03-03T11:38:58.116Z,83.81
2023-03-03T11:41:39.044Z,83.88
2023-03-03T11:44:22.929Z,84.68
2023-03-03T11:46:59.734Z,84.59
2023-03-03T11:49:46.299Z,84.15
2023-03-03T11:52:34.109Z,84.16
2023-03-03T11:55:17.682Z,83.82
2023-03-03T11:58:00.953Z,83.21
2023-03-03T12:00:42.146Z,82.69
2023-03-03T12:03:31.259Z,83.60
2023-03-03T12:06:34.782Z,83.06
2023-03-03T12:09:55.461Z,83.01
2023-03-03T12:12:47.327Z,82.99
2023-03-03T12:15:51.544Z,83.63
2023-03-03T12:19:30.819Z,83.68
2023-03-03T12:22:18.200Z,84.05
2023-03-03T12:25:17.394Z,84.24
2023-03-03T12:28:00.506Z,84.09
2023-03-03T12:30:53.504Z,83.63
2023-03-03T12:33:40.465Z,83.40
2023-03-03T12:36:27.920Z,82.99
2023-03-03T12:39:08.785Z,83.26
2023-03-03T12:41:46.062Z,82.87
2023-03-03T12:44:25.743Z,82.75
2023-03-03T12:47:03.198Z,82.47
2023-03-03T12:49:51.940Z,82.88
2023-03-03T12:52:52.103Z,82.79
2023-03-03T12:55:34.394Z,82.79
2023-03-03T12:58:37.483Z,82.07
2023-03-03T13:01:36.141Z,82.05
2023-03-03T13:04:19.363Z,83.47
2023-03-03T13:07:16.921Z,83.51
2023-03-03T13:10:09.850Z,82.85
2023-03-03T13:12:51.823Z,82.89
2023-03-03T13:15:36.273Z,82.58
2023-03-03T13:18:33.541Z,82.54
2023-03-03T13:21:12.011Z,81.43
2023-03-03T13:23:52.258Z,81.77
2023-03-03T13:26:36.251Z,82.31
2023-03-03T13:29:20.715Z,83.02
2023-03-03T13:31:55.824Z,83.60
2023-03-03T13:34:41.677Z,82.48
2023-03-03T13:37:22.344Z,82.32
2023-03-03T13:40:05.300Z,81.82
2023-03-03T13:42:45.554Z,81.90
2023-03-03T13:45:26.604Z,81.83
2023-03-03T13:51:49.671Z,81.85
2023-03-03T13:55:23.369Z,82.15
2023-03-03T13:58:38.897Z,81.66
2023-03-03T14:01:49.891Z,82.39
2023-03-03T14:04:58.379Z,81.33
2023-03-03T14:11:47.046Z,81.80
2023-03-03T14:18:31.950Z,80.81
2023-03-03T14:21:29.554Z,81.73
2023-03-03T14:24:08.633Z,81.14
2023-03-03T14:26:49.816Z,81.23
2023-03-03T14:29:33.537Z,80.49
2023-03-03T14:32:33.147Z,80.83
2023-03-03T14:35:21.908Z,80.88
2023-03-03T14:37:52.133Z,80.85
2023-03-03T14:40:23.485Z,80.39
2023-03-03T14:42:58.624Z,80.38
2023-03-03T14:45:37.136Z,80.03
2023-03-03T14:48:17.580Z,80.29
2023-03-03T14:50:53.576Z,80.64
2023-03-03T14:53:36.697Z,80.61
2023-03-03T14:56:27.770Z,80.14
2023-03-03T14:59:18.271Z,80.90
2023-03-03T15:01:48.567Z,80.60
2023-03-03T15:04:28.194Z,80.39
2023-03-03T15:06:58.132Z,80.82
2023-03-03T15:09:36.796Z,80.40
2023-03-03T15:12:20.984Z,80.40
2023-03-03T15:14:51.259Z,80.44
2023-03-03T15:17:35.037Z,80.12
2023-03-03T15:20:32.814Z,79.90
2023-03-03T15:23:22.617Z,80.81
2023-03-03T15:26:03.348Z,80.59
2023-03-03T15:28:56.745Z,79.73
2023-03-03T15:31:44.943Z,79.15
2023-03-03T15:34:44.344Z,79.68
2023-03-03T15:37:39.067Z,79.82
2023-03-03T15:40:25.700Z,79.37
2023-03-03T15:43:12.955Z,78.78
2023-03-03T15:45:52.509Z,79.13
2023-03-03T15:48:47.309Z,78.87
2023-03-03T15:51:35.856Z,79.00
2023-03-03T15:54:30.071Z,79.30
2023-03-03T15:57:00.691Z,78.92
2023-03-03T16:00:01.021Z,78.86
2023-03-03T16:02:50.215Z,79.04
2023-03-03T16:05:26.705Z,79.32
2023-03-03T16:08:13.530Z,79.58
2023-03-03T16:10:56.787Z,79.50
2023-03-03T16:13:48.040Z,79.73
2023-03-03T16:16:33.759Z,79.95
2023-03-03T16:19:19.133Z,80.08
2023-03-03T16:22:32.415Z,80.52
2023-03-03T16:25:32.461Z,80.61
2023-03-03T16:28:11.561Z,80.99
2023-03-03T16:30:51.207Z,81.10
2023-03-03T16:33:27.191Z,81.15
2023-03-03T16:36:08.206Z,81.15
2023-03-03T16:38:42.670Z,81.10
2023-03-03T16:41:20.381Z,81.42
2023-03-03T16:44:06.001Z,81.93
2023-03-03T16:46:41.118Z,82.25
2023-03-03T16:49:24.652Z,82.36
2023-03-03T16:52:01.292Z,82.95
2023-03-03T16:54:40.526Z,83.00
2023-03-03T16:57:28.668Z,82.50
2023-03-03T17:00:09.585Z,82.57
2023-03-03T17:03:16.135Z,82.88
2023-03-03T17:05:51.350Z,83.01
2023-03-03T17:08:56.291Z,83.42
2023-03-03T17:11:37.826Z,83.21
2023-03-03T17:14:32.673Z,83.28
2023-03-03T17:17:10.354Z,83.36
2023-03-03T17:20:10.825Z,83.74
2023-03-03T17:22:55.702Z,84.18
2023-03-03T17:25:36.295Z,84.39
2023-03-03T17:28:27.056Z,84.79
2023-03-03T17:31:09.399Z,84.90
2023-03-03T17:34:12.124Z,84.68
2023-03-03T17:53:36.901Z,83.86
2023-03-03T17:56:17.827Z,83.15
2023-03-03T17:59:28.327Z,83.17
2023-03-03T18:02:27.445Z,83.02
2023-03-03T18:05:37.325Z,82.54
2023-03-03T18:08:30.947Z,82.71
2023-03-03T18:11:24.094Z,82.46
2023-03-03T18:14:45.092Z,82.42
2023-03-03T18:18:01.823Z,82.59
2023-03-03T18:21:03.559Z,82.37
2023-03-03T18:23:41.646Z,82.20
2023-03-03T18:26:38.229Z,82.38
2023-03-03T18:29:28.009Z,82.88
2023-03-03T18:32:20.774Z,82.56
2023-03-03T18:34:48.916Z,82.38
2023-03-03T18:37:42.898Z,82.42
2023-03-03T18:40:34.533Z,82.35
2023-03-03T18:43:57.368Z,82.42
2023-03-03T18:46:53.533Z,82.49
2023-03-03T18:49:57.410Z,82.57
2023-03-03T18:52:30.030Z,82.38
2023-03-03T18:55:24.823Z,82.46
2023-03-03T18:58:30.458Z,82.57
2023-03-03T19:01:04.204Z,82.90
2023-03-03T19:03:38.225Z,82.63
2023-03-03T19:06:10.146Z,82.73
2023-03-03T19:08:53.794Z,82.88
2023-03-03T19:11:44.842Z,82.81
2023-03-03T19:14:31.825Z,82.70
2023-03-03T19:17:21.703Z,83.10
2023-03-03T19:20:07.052Z,83.07
2023-03-03T19:22:46.283Z,83.16
2023-03-03T19:25:23.174Z,83.20
2023-03-03T19:28:07.959Z,82.64
2023-03-03T19:30:54.987Z,82.79
2023-03-03T19:33:51.822Z,83.04
2023-03-03T19:36:55.969Z,83.01
2023-03-03T19:40:04.403Z,82.90
2023-03-03T19:42:47.684Z,83.18
2023-03-03T19:45:52.578Z,82.91
2023-03-03T19:48:34.991Z,83.08
2023-03-03T19:51:14.044Z,83.10
2023-03-03T19:53:54.830Z,82.40
2023-03-03T19:56:38.045Z,82.83
2023-03-03T19:59:27.831Z,82.23
2023-03-03T20:02:28.059Z,82.27
2023-03-03T20:05:15.220Z,81.13
2023-03-03T20:07:54.933Z,79.86
2023-03-03T20:10:47.791Z,80.75
2023-03-03T20:13:38.774Z,81.64
2023-03-03T20:16:28.792Z,81.46
2023-03-03T20:19:31.256Z,81.25
2023-03-03T20:22:11.652Z,79.60
2023-03-03T20:25:11.722Z,77.99
2023-03-03T20:27:55.954Z,77.29
2023-03-03T20:30:48.449Z,76.45
2023-03-03T20:33:38.239Z,76.02
2023-03-03T20:36:21.068Z,75.79
2023-03-03T20:39:05.600Z,75.55
2023-03-03T20:41:55.886Z,75.94
2023-03-03T20:44:45.144Z,75.54
2023-03-03T20:47:28.988Z,75.37
2023-03-03T20:50:18.486Z,75.92
2023-03-03T20:53:02.093Z,75.83
2023-03-03T20:55:45.916Z,75.69
2023-03-03T20:58:24.840Z,75.78
2023-03-03T21:01:05.643Z,75.73
2023-03-03T21:03:37.341Z,76.30
2023-03-03T21:06:09.305Z,75.67
2023-03-03T21:08:53.201Z,75.80
2023-03-03T21:11:24.390Z,75.74
2023-03-03T21:13:54.379Z,76.09
2023-03-03T21:16:35.561Z,75.94
2023-03-03T21:19:06.928Z,76.05
2023-03-03T21:21:40.940Z,76.46
2023-03-03T21:24:19.508Z,76.48
2023-03-03T21:26:55.896Z,76.77
2023-03-03T21:29:27.641Z,77.02
2023-03-03T21:31:58.165Z,76.25
2023-03-03T21:34:34.683Z,76.61
2023-03-03T21:37:06.036Z,77.13
2023-03-03T21:39:38.069Z,76.87
2023-03-03T21:42:09.693Z,77.20
2023-03-03T21:44:44.072Z,76.92
2023-03-03T21:47:15.561Z,77.02
2023-03-03T21:49:44.712Z,77.07
2023-03-03T21:52:44.351Z,77.06
2023-03-03T21:55:13.843Z,77.45
2023-03-03T21:57:41.917Z,77.45
2023-03-03T22:00:11.972Z,77.33
2023-03-03T22:02:39.907Z,77.51
2023-03-03T22:05:08.849Z,77.75
2023-03-03T22:07:36.745Z,77.34
2023-03-03T22:10:07.332Z,77.32
2023-03-03T22:12:36.680Z,77.06
2023-03-03T22:15:05.594Z,77.66
2023-03-03T22:17:33.521Z,77.96
2023-03-03T22:20:01.553Z,77.71
2023-03-03T22:22:29.423Z,78.16
2023-03-03T22:24:57.591Z,77.43
2023-03-03T22:27:25.797Z,77.91
2023-03-03T22:29:55.166Z,77.83
2023-03-03T22:32:23.142Z,78.01
2023-03-03T22:34:51.091Z,78.18
2023-03-03T22:37:19.079Z,78.22
2023-03-03T22:39:47.037Z,78.63
2023-03-03T22:42:15.004Z,78.63
2023-03-03T22:44:45.729Z,78.79
2023-03-03T22:47:16.603Z,78.79
2023-03-03T22:49:44.602Z,79.08
2023-03-03T22:52:12.588Z,79.09
2023-03-03T22:54:41.282Z,78.55
2023-03-03T22:57:09.237Z,79.04
2023-03-03T22:59:37.175Z,79.34
2023-03-03T23:02:05.043Z,79.75
2023-03-03T23:04:34.462Z,80.05
2023-03-03T23:07:02.979Z,80.86
2023-03-03T23:09:30.928Z,81.21
2023-03-03T23:12:01.952Z,82.02
2023-03-03T23:14:29.918Z,82.14
2023-03-03T23:16:57.940Z,82.66
2023-03-03T23:19:25.974Z,82.73
2023-03-03T23:21:55.411Z,83.45
2023-03-03T23:24:23.409Z,83.58
2023-03-03T23:26:56.690Z,84.13
2023-03-03T23:29:24.815Z,84.38
2023-03-03T23:31:52.790Z,84.50
2023-03-03T23:34:20.792Z,84.93
2023-03-03T23:36:49.060Z,85.61
2023-03-03T23:39:18.374Z,85.78
2023-03-03T23:41:46.438Z,85.62
2023-03-03T23:44:15.052Z,85.73
2023-03-03T23:46:43.111Z,86.10
2023-03-03T23:49:11.178Z,86.03
2023-03-03T23:51:39.249Z,86.20
2023-03-03T23:54:07.488Z,86.93
2023-03-03T23:56:36.915Z,86.55
2023-03-03T23:59:05.035Z,86.71
